Time;durP1;ratioP1;P1;durP2;ratioP2;P2;SDS_P1;SDS_P2;PMS_P1;PMS_P2;Temp;Humidity;BMP_temperature;BMP_pressure;BME280_temperature;BME280_humidity;BME280_pressure;Samples;Min_cycle;Max_cycle;Signal;HPM_P1;HPM_P2
2023/09/08 00:01:53;;;;;;;3.42;2.70;;;14.40;99.90;;;;;;4963341;28;20042;-65
2023/09/08 00:04:20;;;;;;;3.78;2.10;;;14.40;99.90;;;;;;4959638;28;20114;-66
2023/09/08 00:06:46;;;;;;;3.20;2.40;;;14.50;99.90;;;;;;4966573;28;20051;-66
2023/09/08 00:09:12;;;;;;;3.10;2.55;;;14.50;99.90;;;;;;4950862;28;21199;-66
2023/09/08 00:11:38;;;;;;;3.00;2.70;;;14.40;99.90;;;;;;4956558;28;20597;-66
2023/09/08 00:14:03;;;;;;;2.97;2.63;;;14.30;99.90;;;;;;4951935;28;20610;-66
2023/09/08 00:16:30;;;;;;;3.47;2.50;;;14.30;99.90;;;;;;4957395;28;20042;-66
2023/09/08 00:18:59;;;;;;;5.60;2.90;;;14.30;99.90;;;;;;4951889;28;20039;-66
2023/09/08 00:21:26;;;;;;;5.47;2.70;;;14.40;99.90;;;;;;4961611;28;20066;-66
2023/09/08 00:23:54;;;;;;;4.00;2.60;;;14.40;99.90;;;;;;4962533;28;20046;-66
2023/09/08 00:26:21;;;;;;;2.97;2.42;;;14.50;99.90;;;;;;4959211;28;20042;-66
2023/09/08 00:28:48;;;;;;;4.03;2.60;;;14.40;99.90;;;;;;4955889;28;20043;-66
2023/09/08 00:31:14;;;;;;;3.10;2.55;;;14.50;99.90;;;;;;4958747;28;20045;-66
2023/09/08 00:33:40;;;;;;;2.78;2.30;;;14.50;99.90;;;;;;4962640;28;20058;-66
2023/09/08 00:36:06;;;;;;;4.63;2.28;;;14.50;99.90;;;;;;4956550;28;20042;-66
2023/09/08 00:38:32;;;;;;;2.40;2.17;;;14.50;99.90;;;;;;4968105;28;20721;-65
2023/09/08 00:40:58;;;;;;;3.13;2.28;;;14.40;99.90;;;;;;4962541;28;21265;-66
2023/09/08 00:43:24;;;;;;;3.42;2.28;;;14.30;99.90;;;;;;4962986;28;20460;-66
2023/09/08 00:45:50;;;;;;;2.83;2.05;;;14.20;99.90;;;;;;4964900;28;20062;-66
2023/09/08 00:48:16;;;;;;;3.35;2.63;;;14.30;99.90;;;;;;4960421;28;20050;-66
2023/09/08 00:50:42;;;;;;;3.42;2.50;;;14.20;99.90;;;;;;4965782;28;20039;-66
2023/09/08 00:53:08;;;;;;;2.45;2.05;;;14.10;99.90;;;;;;4965989;28;20129;-66
2023/09/08 00:55:34;;;;;;;3.70;2.53;;;14.10;99.90;;;;;;4960323;28;20089;-66
2023/09/08 00:58:01;;;;;;;2.83;2.42;;;14.10;99.90;;;;;;4965124;28;20062;-67
2023/09/08 01:00:27;;;;;;;2.78;2.53;;;14.20;99.90;;;;;;4959685;28;20050;-67
2023/09/08 01:02:53;;;;;;;4.10;2.50;;;14.20;99.90;;;;;;4968060;28;20093;-67
2023/09/08 01:05:20;;;;;;;4.40;2.28;;;14.10;99.90;;;;;;4960919;28;20562;-67
2023/09/08 01:07:47;;;;;;;2.80;2.47;;;14.10;99.90;;;;;;4958067;28;20054;-67
2023/09/08 01:10:13;;;;;;;3.85;1.95;;;14.00;99.90;;;;;;4962026;28;23321;-67
2023/09/08 01:12:39;;;;;;;2.35;2.00;;;14.00;99.90;;;;;;4963751;28;20034;-67
2023/09/08 01:15:06;;;;;;;3.70;2.30;;;14.00;99.90;;;;;;4964095;28;20034;-66
2023/09/08 01:17:31;;;;;;;4.78;2.63;;;14.00;99.90;;;;;;4961955;28;20511;-67
2023/09/08 01:20:12;;;;;;;3.67;2.25;;;13.90;99.90;;;;;;4963366;28;20038;-67
2023/09/08 01:22:59;;;;;;;2.78;2.53;;;13.80;99.90;;;;;;4961911;28;20038;-67
2023/09/08 01:25:26;;;;;;;1.98;1.73;;;13.80;99.90;;;;;;4959082;28;20070;-67
2023/09/08 01:27:54;;;;;;;2.58;2.03;;;13.70;99.90;;;;;;4956582;28;21746;-67
2023/09/08 01:30:22;;;;;;;3.83;2.60;;;13.70;99.90;;;;;;4965170;28;20752;-67
2023/09/08 01:32:50;;;;;;;2.95;2.50;;;13.70;99.90;;;;;;4960970;28;20161;-66
2023/09/08 01:35:15;;;;;;;4.95;2.35;;;13.80;99.90;;;;;;4965959;28;20062;-67
2023/09/08 01:37:44;;;;;;;3.10;2.35;;;13.80;99.90;;;;;;4966228;28;20105;-67
2023/09/08 01:40:10;;;;;;;2.50;2.25;;;13.80;99.90;;;;;;4962218;28;20578;-66
2023/09/08 01:42:37;;;;;;;2.88;2.38;;;13.80;99.90;;;;;;4962035;28;20105;-67
2023/09/08 01:45:03;;;;;;;4.00;2.40;;;13.80;99.90;;;;;;4963460;28;20094;-66
2023/09/08 01:47:30;;;;;;;3.42;2.08;;;13.80;99.90;;;;;;4959411;28;20058;-67
2023/09/08 01:49:55;;;;;;;3.67;2.42;;;13.80;99.90;;;;;;4964309;28;20031;-67
2023/09/08 01:52:21;;;;;;;3.42;2.45;;;13.80;99.90;;;;;;4967749;28;20112;-67
2023/09/08 01:54:47;;;;;;;7.13;2.78;;;13.70;99.90;;;;;;4962569;28;20153;-67
2023/09/08 01:57:13;;;;;;;3.65;2.47;;;13.80;99.90;;;;;;4964499;28;20042;-67
2023/09/08 01:59:57;;;;;;;3.53;2.65;;;13.70;99.90;;;;;;4946864;28;20566;-67
2023/09/08 02:02:23;;;;;;;2.88;2.55;;;13.70;99.90;;;;;;4965328;28;20384;-66
2023/09/08 02:04:48;;;;;;;3.35;2.50;;;13.70;99.90;;;;;;4967919;28;20042;-67
2023/09/08 02:07:14;;;;;;;3.15;2.83;;;13.70;99.90;;;;;;4970204;28;20050;-67
2023/09/08 02:09:40;;;;;;;3.80;2.40;;;13.70;99.90;;;;;;4962139;28;20050;-67
2023/09/08 02:12:06;;;;;;;3.40;2.65;;;13.60;99.90;;;;;;4965410;28;20704;-67
2023/09/08 02:14:31;;;;;;;2.63;2.10;;;13.60;99.90;;;;;;4964842;28;20034;-66
2023/09/08 02:16:57;;;;;;;2.22;2.03;;;13.60;99.90;;;;;;4963829;28;20034;-67
2023/09/08 02:19:23;;;;;;;3.15;2.70;;;13.60;99.90;;;;;;4965719;28;20045;-66
2023/09/08 02:21:49;;;;;;;2.55;2.22;;;13.60;99.90;;;;;;4962171;28;20127;-67
2023/09/08 02:24:14;;;;;;;5.28;2.40;;;13.60;99.90;;;;;;4959691;28;20062;-67
2023/09/08 02:26:40;;;;;;;4.88;2.70;;;13.60;99.90;;;;;;4968496;28;20101;-67
2023/09/08 02:29:07;;;;;;;3.60;2.40;;;13.50;99.90;;;;;;4956873;28;20472;-66
2023/09/08 02:31:33;;;;;;;2.95;2.40;;;13.50;99.90;;;;;;4967475;28;20132;-66
2023/09/08 02:33:58;;;;;;;3.97;2.42;;;13.50;99.90;;;;;;4959651;28;20085;-67
2023/09/08 02:36:27;;;;;;;3.05;2.75;;;13.40;99.90;;;;;;4965578;28;20046;-66
2023/09/08 02:38:56;;;;;;;3.28;2.50;;;13.40;99.90;;;;;;4963484;28;20121;-67
2023/09/08 02:41:22;;;;;;;8.23;3.13;;;13.30;99.90;;;;;;4963065;28;20034;-67
2023/09/08 02:43:48;;;;;;;3.15;2.60;;;13.30;99.90;;;;;;4964590;28;20057;-66
2023/09/08 02:46:14;;;;;;;2.83;2.63;;;13.30;99.90;;;;;;4962905;28;20579;-67
2023/09/08 02:48:39;;;;;;;3.67;2.65;;;13.30;99.90;;;;;;4963415;28;20043;-66
2023/09/08 02:51:05;;;;;;;2.90;2.55;;;13.30;99.90;;;;;;4959037;28;20920;-67
2023/09/08 02:53:31;;;;;;;5.00;3.83;;;13.40;99.90;;;;;;4960415;28;20081;-66
2023/09/08 02:55:57;;;;;;;5.50;2.97;;;13.40;99.90;;;;;;4959536;28;20617;-66
2023/09/08 02:58:23;;;;;;;2.92;2.50;;;13.30;99.90;;;;;;4961413;28;20106;-66
2023/09/08 03:00:50;;;;;;;3.70;3.15;;;13.30;99.90;;;;;;4960677;28;20149;-67
2023/09/08 03:03:15;;;;;;;5.72;2.40;;;13.30;99.90;;;;;;4964752;28;20440;-67
2023/09/08 03:05:41;;;;;;;2.38;2.17;;;13.30;99.90;;;;;;4960701;28;20117;-67
2023/09/08 03:08:07;;;;;;;5.15;2.20;;;13.20;99.90;;;;;;4949092;28;20589;-67
2023/09/08 03:10:36;;;;;;;3.05;2.13;;;13.20;99.90;;;;;;4961070;28;20039;-66
2023/09/08 03:13:02;;;;;;;3.08;2.50;;;13.20;99.90;;;;;;4962766;28;20045;-66
2023/09/08 03:15:28;;;;;;;3.67;2.50;;;13.00;99.90;;;;;;4966662;28;20043;-67
2023/09/08 03:18:00;;;;;;;3.88;2.30;;;13.00;99.90;;;;;;4962452;28;20118;-66
2023/09/08 03:20:28;;;;;;;2.78;2.40;;;13.00;99.90;;;;;;4960368;28;24467;-66
2023/09/08 03:22:54;;;;;;;2.97;2.65;;;13.00;99.90;;;;;;4961803;28;20444;-66
2023/09/08 03:25:20;;;;;;;2.83;2.47;;;13.10;99.90;;;;;;4961662;28;20038;-66
2023/09/08 03:27:46;;;;;;;3.17;2.13;;;13.10;99.90;;;;;;4967659;28;20459;-66
2023/09/08 03:30:12;;;;;;;5.93;2.47;;;13.10;99.90;;;;;;4965403;28;20034;-66
2023/09/08 03:32:38;;;;;;;2.58;2.35;;;13.00;99.90;;;;;;4962044;28;20062;-66
2023/09/08 03:35:07;;;;;;;3.08;2.13;;;13.10;99.90;;;;;;4964067;28;20049;-66
2023/09/08 03:37:34;;;;;;;3.55;2.55;;;13.00;99.90;;;;;;4962279;28;20043;-66
2023/09/08 03:40:00;;;;;;;3.53;2.25;;;13.00;99.90;;;;;;4961765;28;20045;-66
2023/09/08 03:42:25;;;;;;;3.70;2.55;;;12.90;99.90;;;;;;4958284;28;20043;-67
2023/09/08 03:44:51;;;;;;;5.70;2.92;;;12.90;99.90;;;;;;4942927;28;20194;-67
2023/09/08 03:47:17;;;;;;;3.58;3.13;;;12.90;99.90;;;;;;4958953;28;20495;-67
2023/09/08 03:49:42;;;;;;;4.03;2.30;;;12.90;99.90;;;;;;4959937;28;20038;-67
2023/09/08 03:52:08;;;;;;;3.00;2.50;;;12.80;99.90;;;;;;4960958;28;20042;-67
2023/09/08 03:54:34;;;;;;;3.85;2.85;;;12.80;99.90;;;;;;4962459;28;20058;-67
2023/09/08 03:56:59;;;;;;;9.93;2.70;;;12.90;99.90;;;;;;4957649;28;20074;-66
2023/09/08 03:59:25;;;;;;;3.95;2.13;;;12.90;99.90;;;;;;4957216;28;20520;-67
2023/09/08 04:01:50;;;;;;;5.72;2.60;;;12.90;99.90;;;;;;4942447;28;20445;-67
2023/09/08 04:04:16;;;;;;;4.45;2.30;;;12.90;99.90;;;;;;4957839;28;20768;-67
2023/09/08 04:06:42;;;;;;;3.45;2.65;;;12.80;99.90;;;;;;4957749;28;20165;-66
2023/09/08 04:09:07;;;;;;;2.90;2.45;;;12.80;99.90;;;;;;4962808;28;20043;-66
2023/09/08 04:11:33;;;;;;;3.10;2.53;;;12.80;99.90;;;;;;4957440;28;20489;-67
2023/09/08 04:13:59;;;;;;;4.30;2.47;;;12.70;99.90;;;;;;4956485;28;20052;-66
2023/09/08 04:16:26;;;;;;;3.80;2.80;;;12.70;99.90;;;;;;4956427;28;20031;-66
2023/09/08 04:18:51;;;;;;;4.57;2.78;;;12.70;99.90;;;;;;4959819;28;22269;-66
2023/09/08 04:21:17;;;;;;;6.82;2.75;;;12.70;99.90;;;;;;4960458;28;20049;-66
2023/09/08 04:23:43;;;;;;;3.13;2.47;;;12.80;99.90;;;;;;4962896;28;20050;-66
2023/09/08 04:26:08;;;;;;;3.20;2.38;;;12.80;99.90;;;;;;4961879;28;20050;-65
2023/09/08 04:28:34;;;;;;;2.25;2.05;;;12.80;99.90;;;;;;4950335;28;20030;-66
2023/09/08 04:30:59;;;;;;;3.00;1.95;;;12.80;99.90;;;;;;4953208;28;20114;-66
2023/09/08 04:33:26;;;;;;;3.28;2.40;;;12.80;99.90;;;;;;4959893;28;20046;-65
2023/09/08 04:35:51;;;;;;;6.75;2.63;;;12.70;99.90;;;;;;4939235;28;20035;-66
2023/09/08 04:38:17;;;;;;;3.65;2.20;;;12.70;99.90;;;;;;4957464;28;20043;-66
2023/09/08 04:40:45;;;;;;;2.25;2.00;;;12.60;99.90;;;;;;4961986;28;20042;-67
2023/09/08 04:43:11;;;;;;;3.92;2.85;;;12.60;99.90;;;;;;4955045;28;20129;-66
2023/09/08 04:45:37;;;;;;;2.85;2.28;;;12.70;99.90;;;;;;4949157;28;20082;-66
2023/09/08 04:48:04;;;;;;;10.15;2.38;;;12.70;99.90;;;;;;4947563;28;20078;-66
2023/09/08 04:50:30;;;;;;;3.47;2.17;;;12.80;99.90;;;;;;4954671;28;20039;-66
2023/09/08 04:52:55;;;;;;;5.25;3.78;;;12.80;99.90;;;;;;4954990;28;20074;-66
2023/09/08 04:55:21;;;;;;;13.70;2.70;;;12.80;99.90;;;;;;4951344;28;20081;-66
2023/09/08 04:57:47;;;;;;;3.35;2.25;;;12.90;99.90;;;;;;4958283;28;20670;-67
2023/09/08 05:00:13;;;;;;;3.42;2.22;;;12.90;99.90;;;;;;4957024;28;21267;-66
2023/09/08 05:02:38;;;;;;;11.85;2.60;;;13.00;99.90;;;;;;4955695;28;20165;-62
2023/09/08 05:05:04;;;;;;;17.63;2.60;;;13.20;99.90;;;;;;4952061;28;20042;-66
2023/09/08 05:07:30;;;;;;;6.93;2.58;;;13.40;99.90;;;;;;4947525;28;20160;-66
2023/09/08 05:09:55;;;;;;;2.63;2.40;;;13.50;99.90;;;;;;4949148;28;20066;-66
2023/09/08 05:12:21;;;;;;;2.97;2.67;;;13.60;99.90;;;;;;4945041;28;20064;-66
2023/09/08 05:14:47;;;;;;;3.03;2.30;;;13.70;99.90;;;;;;4945555;28;20128;-66
2023/09/08 05:17:12;;;;;;;2.78;2.20;;;13.70;99.90;;;;;;4948276;28;21118;-67
2023/09/08 05:19:38;;;;;;;2.72;2.40;;;13.80;99.90;;;;;;4946778;28;20037;-67
2023/09/08 05:22:06;;;;;;;3.17;2.88;;;14.00;99.90;;;;;;4930291;28;20043;-66
2023/09/08 05:24:31;;;;;;;4.25;2.78;;;14.10;99.90;;;;;;4946612;28;20058;-67
2023/09/08 05:26:57;;;;;;;2.90;2.58;;;14.20;99.90;;;;;;4954184;28;20053;-66
2023/09/08 05:29:22;;;;;;;4.40;2.80;;;14.30;99.90;;;;;;4946823;28;20038;-67
2023/09/08 05:31:48;;;;;;;3.83;2.72;;;14.50;99.90;;;;;;4963863;28;20057;-67
2023/09/08 05:34:13;;;;;;;4.80;4.07;;;14.60;99.90;;;;;;4958166;28;20039;-67
2023/09/08 05:36:40;;;;;;;5.05;2.88;;;14.80;99.90;;;;;;4956377;28;20046;-67
2023/09/08 05:39:07;;;;;;;5.45;3.08;;;14.90;99.90;;;;;;4953858;28;20039;-67
2023/09/08 05:41:33;;;;;;;5.13;3.30;;;15.10;99.90;;;;;;4959613;28;20038;-67
2023/09/08 05:43:59;;;;;;;6.05;3.03;;;15.30;99.90;;;;;;4956885;28;20129;-67
2023/09/08 05:46:25;;;;;;;3.88;2.70;;;15.40;99.90;;;;;;4949518;28;20696;-67
2023/09/08 05:48:51;;;;;;;11.55;3.33;;;15.50;99.90;;;;;;4925316;28;20121;-67
2023/09/08 05:51:17;;;;;;;4.80;3.80;;;15.70;99.90;;;;;;4950773;28;20035;-67
2023/09/08 05:53:42;;;;;;;2.95;2.65;;;15.80;99.90;;;;;;4955707;28;20046;-67
2023/09/08 05:56:08;;;;;;;4.55;2.78;;;16.00;99.90;;;;;;4957541;28;20038;-68
2023/09/08 05:58:34;;;;;;;3.50;3.05;;;16.20;99.90;;;;;;4953784;28;20087;-67
2023/09/08 06:01:03;;;;;;;3.42;2.70;;;16.50;99.90;;;;;;4957403;28;20073;-67
2023/09/08 06:03:29;;;;;;;4.22;3.05;;;16.70;99.90;;;;;;4961750;28;20040;-67
2023/09/08 06:05:56;;;;;;;7.15;3.38;;;16.90;99.90;;;;;;4958995;28;20038;-67
2023/09/08 06:08:22;;;;;;;5.88;3.78;;;17.20;99.90;;;;;;4958358;28;20048;-67
2023/09/08 06:10:48;;;;;;;4.18;3.33;;;17.50;99.90;;;;;;4953030;28;20039;-67
2023/09/08 06:13:13;;;;;;;4.28;3.28;;;17.80;99.90;;;;;;4963316;28;20559;-66
2023/09/08 06:15:39;;;;;;;3.97;3.58;;;18.00;99.90;;;;;;4961067;28;20030;-67
2023/09/08 06:18:05;;;;;;;5.50;3.35;;;18.20;99.90;;;;;;4959747;28;20667;-67
2023/09/08 06:20:31;;;;;;;3.85;3.45;;;18.50;99.90;;;;;;4962588;28;20658;-67
2023/09/08 06:22:57;;;;;;;3.53;3.13;;;18.70;99.90;;;;;;4965909;28;20035;-67
2023/09/08 06:25:22;;;;;;;3.70;3.00;;;18.90;99.90;;;;;;4941377;28;20092;-67
2023/09/08 06:27:48;;;;;;;5.32;3.22;;;19.20;99.90;;;;;;4960063;28;20069;-68
2023/09/08 06:30:16;;;;;;;8.00;3.25;;;19.30;99.90;;;;;;4939506;28;20093;-67
2023/09/08 06:32:42;;;;;;;4.63;3.50;;;19.50;99.90;;;;;;4935968;28;20472;-68
2023/09/08 06:35:08;;;;;;;3.58;3.28;;;19.60;99.90;;;;;;4956281;28;20034;-68
2023/09/08 06:37:36;;;;;;;4.28;3.55;;;19.80;99.90;;;;;;4960734;28;20034;-68
2023/09/08 06:40:02;;;;;;;4.03;3.65;;;19.90;99.90;;;;;;4967063;28;20440;-68
2023/09/08 06:42:28;;;;;;;4.03;3.63;;;20.00;99.90;;;;;;4960865;28;20074;-68
2023/09/08 06:44:53;;;;;;;4.80;3.38;;;20.20;99.90;;;;;;4960819;28;20359;-67
2023/09/08 06:47:19;;;;;;;6.97;3.47;;;20.30;99.90;;;;;;4960630;28;20038;-67
2023/09/08 06:49:45;;;;;;;3.70;3.17;;;20.40;99.90;;;;;;4957511;28;20047;-66
2023/09/08 06:52:10;;;;;;;4.88;3.50;;;20.60;99.90;;;;;;4959995;28;20043;-67
2023/09/08 06:54:36;;;;;;;4.75;3.45;;;20.80;99.90;;;;;;4954164;28;20038;-67
2023/09/08 06:57:01;;;;;;;6.90;3.70;;;20.80;99.90;;;;;;4954747;28;20035;-67
2023/09/08 06:59:27;;;;;;;4.10;3.30;;;20.90;99.90;;;;;;4949256;28;20065;-67
2023/09/08 07:01:53;;;;;;;4.47;3.38;;;21.00;99.90;;;;;;4954348;28;20026;-67
2023/09/08 07:04:18;;;;;;;4.43;3.50;;;21.10;99.90;;;;;;4959246;28;20046;-67
2023/09/08 07:06:46;;;;;;;3.47;3.10;;;21.20;99.90;;;;;;4953392;28;20070;-68
2023/09/08 07:09:12;;;;;;;6.13;3.33;;;21.30;99.90;;;;;;4955973;28;20042;-68
2023/09/08 07:11:37;;;;;;;4.03;3.63;;;21.40;99.90;;;;;;4953641;28;20039;-68
2023/09/08 07:14:03;;;;;;;3.65;2.90;;;21.50;99.90;;;;;;4955311;28;21219;-68
2023/09/08 07:16:29;;;;;;;4.00;3.38;;;21.60;99.90;;;;;;4954618;28;20113;-67
2023/09/08 07:18:54;;;;;;;4.30;3.45;;;21.60;99.90;;;;;;4958555;28;20035;-67
2023/09/08 07:21:20;;;;;;;4.47;3.20;;;21.80;99.90;;;;;;4958503;28;20380;-67
2023/09/08 07:23:46;;;;;;;4.47;3.63;;;21.90;99.90;;;;;;4965495;28;20054;-67
2023/09/08 07:26:12;;;;;;;4.47;3.72;;;22.00;99.90;;;;;;4963614;28;20084;-68
2023/09/08 07:28:37;;;;;;;4.13;3.58;;;22.00;99.90;;;;;;4961535;28;20327;-68
2023/09/08 07:31:08;;;;;;;5.55;3.33;;;22.10;99.90;;;;;;4960876;28;20630;-68
2023/09/08 07:33:34;;;;;;;5.20;3.20;;;22.20;99.90;;;;;;4964283;28;20050;-67
2023/09/08 07:36:05;;;;;;;4.15;3.20;;;22.20;99.90;;;;;;4954600;28;20097;-67
2023/09/08 07:38:31;;;;;;;4.00;3.00;;;22.20;99.90;;;;;;4950124;28;21112;-67
2023/09/08 07:40:59;;;;;;;3.72;2.95;;;22.20;99.90;;;;;;4955415;28;20129;-68
2023/09/08 07:43:25;;;;;;;3.20;2.95;;;22.30;99.90;;;;;;4959191;28;20527;-67
2023/09/08 07:45:52;;;;;;;3.95;3.22;;;22.60;99.90;;;;;;4957389;28;20604;-68
2023/09/08 07:48:18;;;;;;;8.02;3.92;;;22.70;99.90;;;;;;4961113;28;20499;-68
2023/09/08 07:50:43;;;;;;;6.05;3.30;;;23.00;99.90;;;;;;4957356;28;20233;-68
2023/09/08 07:53:09;;;;;;;7.18;3.55;;;23.00;99.90;;;;;;4941988;28;20137;-68
2023/09/08 07:55:35;;;;;;;3.83;3.40;;;23.20;99.90;;;;;;4961206;28;20034;-68
2023/09/08 07:58:03;;;;;;;3.50;3.20;;;23.30;99.90;;;;;;4958063;28;20064;-69
2023/09/08 08:00:29;;;;;;;6.15;3.53;;;23.40;99.90;;;;;;4957302;28;20064;-68
2023/09/08 08:02:56;;;;;;;4.13;3.53;;;23.50;99.90;;;;;;4964322;28;20202;-68
2023/09/08 08:05:22;;;;;;;5.85;3.53;;;23.60;99.90;;;;;;4965203;28;20027;-67
2023/09/08 08:15:24;;;;;;;4.18;3.22;;;23.70;99.90;;;;;;4948091;28;20136;-67
2023/09/08 08:18:21;;;;;;;4.38;3.45;;;23.60;99.90;;;;;;4958097;28;20090;-67
2023/09/08 08:20:47;;;;;;;4.38;3.35;;;23.60;99.90;;;;;;4957424;28;20034;-67
2023/09/08 08:23:12;;;;;;;7.80;3.45;;;23.70;99.90;;;;;;4954653;28;20038;-67
2023/09/08 08:25:38;;;;;;;6.10;3.83;;;23.80;99.90;;;;;;4959101;28;20495;-67
2023/09/08 08:28:04;;;;;;;3.50;3.20;;;23.80;99.90;;;;;;4961972;28;20046;-68
2023/09/08 08:30:30;;;;;;;4.95;3.38;;;23.80;99.90;;;;;;4961250;28;20067;-67
2023/09/08 08:32:56;;;;;;;5.45;3.15;;;23.70;99.90;;;;;;4964114;28;20054;-68
2023/09/08 08:35:21;;;;;;;3.97;3.35;;;23.70;99.90;;;;;;4964480;28;20042;-69
2023/09/08 08:37:47;;;;;;;3.72;3.08;;;23.60;99.90;;;;;;4964391;28;20364;-67
2023/09/08 08:40:13;;;;;;;7.10;3.85;;;23.60;99.90;;;;;;4966703;28;20672;-67
2023/09/08 08:42:40;;;;;;;7.07;3.55;;;23.80;99.90;;;;;;4962681;28;20384;-68
2023/09/08 08:45:06;;;;;;;4.95;3.30;;;23.80;99.90;;;;;;4958971;28;20500;-68
2023/09/08 08:47:32;;;;;;;6.40;4.00;;;23.70;99.90;;;;;;4952910;28;20065;-67
2023/09/08 08:49:59;;;;;;;5.70;3.67;;;23.60;99.90;;;;;;4948757;28;20167;-67
2023/09/08 08:52:26;;;;;;;4.38;3.55;;;23.70;99.90;;;;;;4952151;28;20045;-67
2023/09/08 08:54:53;;;;;;;7.20;3.83;;;23.80;99.90;;;;;;4949762;28;20041;-67
2023/09/08 08:57:20;;;;;;;5.05;3.30;;;23.90;99.90;;;;;;4969903;28;20089;-67
2023/09/08 08:59:48;;;;;;;5.95;3.45;;;24.00;99.90;;;;;;4966319;28;20178;-71
2023/09/08 09:02:14;;;;;;;8.10;3.90;;;24.20;99.90;;;;;;4965992;28;20050;-71
2023/09/08 09:04:40;;;;;;;6.15;3.08;;;24.20;99.90;;;;;;4963706;28;20034;-71
2023/09/08 09:07:07;;;;;;;5.53;3.45;;;24.20;99.90;;;;;;4969217;28;20050;-72
2023/09/08 09:09:33;;;;;;;4.32;3.47;;;24.30;99.90;;;;;;4964147;28;20041;-72
2023/09/08 09:11:59;;;;;;;6.70;3.95;;;24.30;99.90;;;;;;4961548;28;20054;-72
2023/09/08 09:14:24;;;;;;;6.10;3.83;;;24.30;99.90;;;;;;4964409;28;20082;-66
2023/09/08 09:16:50;;;;;;;13.85;4.07;;;24.30;99.90;;;;;;4957386;28;20093;-66
2023/09/08 09:19:25;;;;;;;4.10;3.35;;;24.30;99.90;;;;;;4958668;28;20049;-67
2023/09/08 09:21:54;;;;;;;4.03;3.10;;;24.50;99.90;;;;;;4963197;28;20046;-66
2023/09/08 09:24:31;;;;;;;4.10;3.45;;;24.50;99.90;;;;;;4965296;28;20086;-67
2023/09/08 09:26:57;;;;;;;3.72;2.80;;;24.50;99.90;;;;;;4961886;28;20174;-66
2023/09/08 09:29:22;;;;;;;5.50;3.33;;;24.60;99.90;;;;;;4971394;28;20037;-66
2023/09/08 09:31:53;;;;;;;5.85;3.42;;;24.60;99.90;;;;;;4975206;28;20742;-66
2023/09/08 09:34:20;;;;;;;7.00;4.15;;;24.70;99.90;;;;;;4970056;28;20531;-66
2023/09/08 09:36:49;;;;;;;6.25;3.83;;;24.70;99.90;;;;;;4969705;28;20137;-66
2023/09/08 09:39:17;;;;;;;5.47;3.47;;;24.80;99.90;;;;;;4971391;28;20097;-65
2023/09/08 09:41:43;;;;;;;4.13;3.42;;;24.80;99.90;;;;;;4973774;28;20046;-66
2023/09/08 09:44:11;;;;;;;3.53;3.13;;;24.90;99.90;;;;;;4972621;28;20089;-67
2023/09/08 09:46:37;;;;;;;4.22;3.55;;;25.00;99.90;;;;;;4974999;28;20504;-66
2023/09/08 09:49:03;;;;;;;4.88;3.38;;;24.90;99.90;;;;;;4975563;28;20062;-66
2023/09/08 09:51:29;;;;;;;4.03;3.33;;;25.00;99.90;;;;;;4973627;28;20042;-67
2023/09/08 09:53:55;;;;;;;4.90;3.47;;;25.10;99.90;;;;;;4978995;28;20053;-66
2023/09/08 09:56:23;;;;;;;3.92;3.40;;;25.30;99.90;;;;;;4975503;28;20523;-66
2023/09/08 09:58:50;;;;;;;4.38;3.00;;;25.40;99.90;;;;;;4967280;28;20038;-67
2023/09/08 10:01:17;;;;;;;4.68;3.28;;;25.40;99.90;;;;;;4971837;28;20058;-68
2023/09/08 10:03:42;;;;;;;4.53;2.83;;;25.50;99.90;;;;;;4967552;28;20038;-66
2023/09/08 10:06:10;;;;;;;4.60;3.67;;;25.60;99.90;;;;;;4969819;28;20034;-67
2023/09/08 10:08:38;;;;;;;7.25;3.40;;;25.60;99.90;;;;;;4978013;28;21225;-66
2023/09/08 10:11:07;;;;;;;4.57;3.00;;;25.70;99.90;;;;;;4966412;28;20066;-67
2023/09/08 10:13:39;;;;;;;7.88;3.45;;;25.70;99.90;;;;;;4980102;28;20043;-67
2023/09/08 10:16:07;;;;;;;4.25;3.53;;;25.70;99.90;;;;;;4977989;28;20584;-67
2023/09/08 10:18:35;;;;;;;6.15;3.42;;;25.80;99.90;;;;;;4975641;28;20049;-65
2023/09/08 10:21:04;;;;;;;8.20;3.75;;;26.00;99.90;;;;;;4974643;28;20040;-65
2023/09/08 10:23:38;;;;;;;3.08;2.78;;;26.00;99.90;;;;;;4973719;28;20496;-66
2023/09/08 10:26:07;;;;;;;3.78;3.03;;;26.00;99.90;;;;;;4974251;28;20035;-66
2023/09/08 10:28:33;;;;;;;3.28;2.90;;;26.10;99.90;;;;;;4976350;28;20514;-66
2023/09/08 10:31:00;;;;;;;6.47;3.13;;;26.20;99.90;;;;;;4972321;28;20149;-65
2023/09/08 10:33:26;;;;;;;3.28;2.85;;;26.30;99.90;;;;;;4963648;28;20051;-65
2023/09/08 10:35:53;;;;;;;3.00;2.70;;;26.20;99.90;;;;;;4974480;28;20097;-66
2023/09/08 10:38:26;;;;;;;4.18;3.10;;;26.20;99.90;;;;;;4973821;28;20200;-66
2023/09/08 10:40:54;;;;;;;5.03;2.80;;;26.20;99.90;;;;;;4974397;28;20173;-66
2023/09/08 10:43:20;;;;;;;3.33;2.88;;;26.30;99.90;;;;;;4973925;28;20492;-66
2023/09/08 10:45:47;;;;;;;4.97;3.30;;;26.40;99.90;;;;;;4976030;28;20129;-66
2023/09/08 10:48:15;;;;;;;3.75;2.58;;;26.50;99.90;;;;;;4961733;28;20149;-66
2023/09/08 10:50:42;;;;;;;3.72;3.08;;;26.50;99.90;;;;;;4969560;28;20062;-71
2023/09/08 10:53:14;;;;;;;3.08;2.67;;;26.50;99.70;;;;;;4970871;28;20034;-73
2023/09/08 10:55:53;;;;;;;3.55;3.03;;;26.50;99.30;;;;;;4951436;28;20097;-73
2023/09/08 10:58:32;;;;;;;3.58;2.83;;;26.40;98.20;;;;;;4970437;28;20076;-80
2023/09/08 11:01:01;;;;;;;4.82;3.10;;;26.40;98.90;;;;;;4966541;28;20910;-75
2023/09/08 11:03:41;;;;;;;3.13;2.70;;;26.40;99.80;;;;;;4955642;28;20304;-77
2023/09/08 11:06:11;;;;;;;4.10;3.08;;;26.40;99.20;;;;;;4960871;28;20189;-77
2023/09/08 11:08:40;;;;;;;3.72;2.80;;;26.50;99.80;;;;;;4966765;28;20042;-73
2023/09/08 11:11:06;;;;;;;3.42;3.13;;;26.60;99.30;;;;;;4965734;28;20184;-80
2023/09/08 11:13:32;;;;;;;3.63;2.72;;;26.60;99.70;;;;;;4968070;28;21654;-73
2023/09/08 11:15:58;;;;;;;3.53;2.83;;;26.70;98.20;;;;;;4965667;28;20555;-79
2023/09/08 11:18:28;;;;;;;3.15;2.53;;;26.70;98.40;;;;;;4965726;28;20038;-75
2023/09/08 11:20:54;;;;;;;4.30;2.55;;;26.70;98.80;;;;;;4965285;28;20054;-75
2023/09/08 11:23:23;;;;;;;2.72;2.47;;;26.80;98.70;;;;;;4962816;28;20030;-73
2023/09/08 11:25:53;;;;;;;3.85;2.42;;;27.00;98.60;;;;;;4960342;28;20038;-66
2023/09/08 11:28:22;;;;;;;6.30;2.95;;;27.10;98.50;;;;;;4964994;28;20844;-66
2023/09/08 11:30:48;;;;;;;3.95;3.13;;;27.20;99.10;;;;;;4968171;28;20031;-66
2023/09/08 11:33:18;;;;;;;11.93;3.03;;;27.30;97.00;;;;;;4952389;28;20054;-66
2023/09/08 11:35:48;;;;;;;5.10;3.17;;;27.20;97.00;;;;;;4949139;28;21021;-66
2023/09/08 11:38:14;;;;;;;5.60;3.50;;;27.10;97.70;;;;;;4960538;28;20057;-66
2023/09/08 11:40:41;;;;;;;16.77;4.43;;;27.00;96.40;;;;;;4968324;28;20046;-70
2023/09/08 11:43:07;;;;;;;4.47;3.05;;;27.00;97.70;;;;;;4963333;28;20058;-70
2023/09/08 11:45:36;;;;;;;9.77;4.47;;;27.10;98.20;;;;;;4963521;28;20547;-74
2023/09/08 11:48:04;;;;;;;6.00;3.00;;;27.20;98.60;;;;;;4964166;28;20050;-71
2023/09/08 11:50:30;;;;;;;11.85;2.60;;;27.30;97.50;;;;;;4966763;28;20723;-69
2023/09/08 11:52:58;;;;;;;4.68;2.53;;;27.30;96.60;;;;;;4956991;28;20612;-68
2023/09/08 11:55:25;;;;;;;3.28;2.80;;;27.30;97.10;;;;;;4969097;28;20498;-68
2023/09/08 11:58:00;;;;;;;5.18;3.20;;;27.30;96.70;;;;;;4973520;28;20049;-70
2023/09/08 12:00:27;;;;;;;5.03;2.97;;;27.30;96.50;;;;;;4974054;28;20767;-68
2023/09/08 12:02:53;;;;;;;4.18;3.30;;;27.30;96.70;;;;;;4965270;28;20095;-68
2023/09/08 12:05:23;;;;;;;4.55;2.97;;;27.30;97.10;;;;;;4956812;28;20949;-68
2023/09/08 12:07:54;;;;;;;3.47;2.70;;;27.30;96.90;;;;;;4966841;28;20042;-69
2023/09/08 12:10:20;;;;;;;4.35;3.03;;;27.40;97.00;;;;;;4968041;28;20034;-68
2023/09/08 12:12:55;;;;;;;3.13;2.83;;;27.50;97.40;;;;;;4959820;28;20057;-68
2023/09/08 12:15:33;;;;;;;3.75;3.00;;;27.60;96.40;;;;;;4954854;28;20567;-68
2023/09/08 12:18:03;;;;;;;3.83;2.90;;;27.70;97.20;;;;;;4956792;28;20062;-68
2023/09/08 12:20:29;;;;;;;4.35;3.08;;;27.80;97.30;;;;;;4963814;28;20030;-68
2023/09/08 12:22:59;;;;;;;4.43;2.90;;;27.90;96.50;;;;;;4965981;28;20096;-68
2023/09/08 12:25:24;;;;;;;8.82;3.22;;;27.80;96.30;;;;;;4966182;28;20043;-64
2023/09/08 12:27:51;;;;;;;4.82;2.80;;;27.90;96.70;;;;;;4965227;28;20074;-66
2023/09/08 12:30:19;;;;;;;4.05;2.92;;;28.00;96.90;;;;;;4966408;28;20023;-65
2023/09/08 12:32:48;;;;;;;4.53;2.70;;;28.00;96.20;;;;;;4970972;28;20074;-64
2023/09/08 12:35:22;;;;;;;5.05;2.33;;;28.10;95.70;;;;;;4962308;28;20987;-65
2023/09/08 12:37:58;;;;;;;3.30;3.00;;;28.10;95.60;;;;;;4937650;28;20042;-64
2023/09/08 12:40:25;;;;;;;3.72;2.58;;;28.00;95.50;;;;;;4971156;28;20047;-65
2023/09/08 12:42:51;;;;;;;14.18;3.00;;;28.00;95.70;;;;;;4961759;28;20073;-65
2023/09/08 12:45:18;;;;;;;4.25;2.80;;;28.00;95.10;;;;;;4961979;28;20653;-65
2023/09/08 12:47:44;;;;;;;4.55;2.53;;;27.90;95.00;;;;;;4955262;28;20129;-65
2023/09/08 12:50:10;;;;;;;3.90;2.70;;;27.80;95.00;;;;;;4964204;28;20038;-64
2023/09/08 12:52:36;;;;;;;4.03;2.75;;;27.80;96.10;;;;;;4958617;28;20043;-64